sensor_id;sensor_type;location;lat;lon;timestamp;pressure;altitude;pressure_sealevel;temperature;humidity
54592;BME280;40488;48.558;18.150;2023-01-28T00:01:20;99689.59;;;1.38;77.73
54592;BME280;40488;48.558;18.150;2023-01-28T00:03:50;99684.38;;;1.31;77.43
54592;BME280;40488;48.558;18.150;2023-01-28T00:06:19;99689.38;;;1.31;78.12
54592;BME280;40488;48.558;18.150;2023-01-28T00:08:48;99690.00;;;1.26;77.96
54592;BME280;40488;48.558;18.150;2023-01-28T00:11:17;99692.47;;;1.24;78.71
54592;BME280;40488;48.558;18.150;2023-01-28T00:13:50;99694.84;;;1.20;78.40
54592;BME280;40488;48.558;18.150;2023-01-28T00:16:20;99697.38;;;1.21;78.84
54592;BME280;40488;48.558;18.150;2023-01-28T00:18:50;99693.84;;;1.16;79.27
54592;BME280;40488;48.558;18.150;2023-01-28T00:21:19;99699.63;;;1.14;79.66
54592;BME280;40488;48.558;18.150;2023-01-28T00:23:51;99695.34;;;1.11;79.74
54592;BME280;40488;48.558;18.150;2023-01-28T00:26:22;99696.81;;;1.06;79.21
54592;BME280;40488;48.558;18.150;2023-01-28T00:28:51;99700.91;;;1.03;80.01
54592;BME280;40488;48.558;18.150;2023-01-28T00:31:23;99704.16;;;1.00;80.06
54592;BME280;40488;48.558;18.150;2023-01-28T00:33:54;99698.22;;;0.98;79.63
54592;BME280;40488;48.558;18.150;2023-01-28T00:36:25;99694.09;;;1.00;79.70
54592;BME280;40488;48.558;18.150;2023-01-28T00:38:54;99696.63;;;1.00;79.64
54592;BME280;40488;48.558;18.150;2023-01-28T00:41:24;99701.63;;;1.00;80.09
54592;BME280;40488;48.558;18.150;2023-01-28T00:43:53;99699.91;;;0.99;79.81
54592;BME280;40488;48.558;18.150;2023-01-28T00:46:24;99696.50;;;0.97;80.04
54592;BME280;40488;48.558;18.150;2023-01-28T00:48:54;99695.63;;;0.97;80.11
54592;BME280;40488;48.558;18.150;2023-01-28T00:51:23;99702.41;;;0.99;80.76
54592;BME280;40488;48.558;18.150;2023-01-28T00:53:52;99709.06;;;0.97;80.28
54592;BME280;40488;48.558;18.150;2023-01-28T00:56:20;99700.72;;;0.98;79.99
54592;BME280;40488;48.558;18.150;2023-01-28T00:58:49;99688.84;;;0.94;80.68
54592;BME280;40488;48.558;18.150;2023-01-28T01:01:20;99702.50;;;1.01;80.86
54592;BME280;40488;48.558;18.150;2023-01-28T01:03:52;99707.56;;;1.02;80.32
54592;BME280;40488;48.558;18.150;2023-01-28T01:06:31;99698.31;;;1.01;80.41
54592;BME280;40488;48.558;18.150;2023-01-28T01:09:04;99698.44;;;1.04;79.93
54592;BME280;40488;48.558;18.150;2023-01-28T01:11:35;99704.31;;;1.05;79.91
54592;BME280;40488;48.558;18.150;2023-01-28T01:14:04;99698.31;;;1.01;80.29
54592;BME280;40488;48.558;18.150;2023-01-28T01:16:33;99662.47;;;0.83;80.04
54592;BME280;40488;48.558;18.150;2023-01-28T01:19:06;99693.28;;;1.01;79.82
54592;BME280;40488;48.558;18.150;2023-01-28T01:21:35;99694.88;;;0.99;80.34
54592;BME280;40488;48.558;18.150;2023-01-28T01:24:04;99699.00;;;0.97;79.79
54592;BME280;40488;48.558;18.150;2023-01-28T01:26:33;99697.28;;;0.96;79.66
54592;BME280;40488;48.558;18.150;2023-01-28T01:29:02;99705.63;;;0.95;79.72
54592;BME280;40488;48.558;18.150;2023-01-28T01:31:31;99704.59;;;0.90;80.16
54592;BME280;40488;48.558;18.150;2023-01-28T01:34:00;99710.56;;;0.94;79.67
54592;BME280;40488;48.558;18.150;2023-01-28T01:36:30;99708.16;;;0.95;79.75
54592;BME280;40488;48.558;18.150;2023-01-28T01:38:59;99699.69;;;0.93;79.70
54592;BME280;40488;48.558;18.150;2023-01-28T01:41:30;99706.41;;;0.94;80.15
54592;BME280;40488;48.558;18.150;2023-01-28T01:44:01;99713.03;;;0.92;80.13
54592;BME280;40488;48.558;18.150;2023-01-28T01:46:35;99707.13;;;0.90;80.08
54592;BME280;40488;48.558;18.150;2023-01-28T01:49:16;99717.13;;;0.89;80.10
54592;BME280;40488;48.558;18.150;2023-01-28T01:51:51;99713.03;;;0.92;80.11
54592;BME280;40488;48.558;18.150;2023-01-28T01:54:24;99715.50;;;0.91;80.15
54592;BME280;40488;48.558;18.150;2023-01-28T01:56:57;99714.53;;;0.87;79.38
54592;BME280;40488;48.558;18.150;2023-01-28T01:59:29;99711.84;;;0.83;79.63
54592;BME280;40488;48.558;18.150;2023-01-28T02:02:00;99725.31;;;0.85;79.65
54592;BME280;40488;48.558;18.150;2023-01-28T02:04:33;99712.69;;;0.83;80.01
54592;BME280;40488;48.558;18.150;2023-01-28T02:07:09;99719.44;;;0.84;79.82
54592;BME280;40488;48.558;18.150;2023-01-28T02:09:39;99717.72;;;0.83;79.51
54592;BME280;40488;48.558;18.150;2023-01-28T02:12:13;99714.31;;;0.81;79.61
54592;BME280;40488;48.558;18.150;2023-01-28T02:14:47;99716.13;;;0.85;79.88
54592;BME280;40488;48.558;18.150;2023-01-28T02:17:19;99698.13;;;0.75;79.34
54592;BME280;40488;48.558;18.150;2023-01-28T02:19:53;99710.38;;;0.88;79.69
54592;BME280;40488;48.558;18.150;2023-01-28T02:28:28;99703.91;;;0.94;78.99
54592;BME280;40488;48.558;18.150;2023-01-28T02:31:03;99701.28;;;0.91;79.27
54592;BME280;40488;48.558;18.150;2023-01-28T02:33:41;99700.53;;;0.94;79.54
54592;BME280;40488;48.558;18.150;2023-01-28T02:36:17;99704.72;;;0.93;78.96
54592;BME280;40488;48.558;18.150;2023-01-28T02:38:53;99708.03;;;0.92;78.52
54592;BME280;40488;48.558;18.150;2023-01-28T02:41:27;99708.03;;;0.92;78.81
54592;BME280;40488;48.558;18.150;2023-01-28T02:44:01;99709.06;;;0.97;78.54
54592;BME280;40488;48.558;18.150;2023-01-28T02:46:34;99711.56;;;0.97;78.34
54592;BME280;40488;48.558;18.150;2023-01-28T02:49:17;99709.84;;;0.96;78.29
54592;BME280;40488;48.558;18.150;2023-01-28T02:52:01;99710.81;;;1.00;78.39
54592;BME280;40488;48.558;18.150;2023-01-28T02:54:37;99712.59;;;1.02;78.30
54592;BME280;40488;48.558;18.150;2023-01-28T02:57:17;99705.06;;;1.02;78.23
54592;BME280;40488;48.558;18.150;2023-01-28T02:59:50;99703.28;;;1.00;77.79
54592;BME280;40488;48.558;18.150;2023-01-28T03:02:27;99710.81;;;1.00;77.44
54592;BME280;40488;48.558;18.150;2023-01-28T03:05:02;99709.06;;;0.97;77.79
54592;BME280;40488;48.558;18.150;2023-01-28T03:07:34;99705.84;;;1.01;77.89
54592;BME280;40488;48.558;18.150;2023-01-28T03:10:08;99700.03;;;1.02;77.63
54592;BME280;40488;48.558;18.150;2023-01-28T03:12:39;99712.66;;;1.04;77.75
54592;BME280;40488;48.558;18.150;2023-01-28T03:15:24;99688.03;;;0.95;77.85
54592;BME280;40488;48.558;18.150;2023-01-28T03:18:06;99709.34;;;1.05;77.81
54592;BME280;40488;48.558;18.150;2023-01-28T03:20:50;99715.22;;;1.05;77.35
54592;BME280;40488;48.558;18.150;2023-01-28T03:23:38;99716.06;;;1.06;77.08
54592;BME280;40488;48.558;18.150;2023-01-28T03:26:21;99711.91;;;1.06;77.34
54592;BME280;40488;48.558;18.150;2023-01-28T03:29:06;99712.75;;;1.07;77.14
54592;BME280;40488;48.558;18.150;2023-01-28T03:31:47;99712.75;;;1.07;77.32
54592;BME280;40488;48.558;18.150;2023-01-28T03:34:27;99708.59;;;1.07;76.29
54592;BME280;40488;48.558;18.150;2023-01-28T03:37:05;99715.31;;;1.08;76.67
54592;BME280;40488;48.558;18.150;2023-01-28T03:39:47;99716.94;;;1.06;76.79
54592;BME280;40488;48.558;18.150;2023-01-28T03:42:17;99714.50;;;1.08;76.31
54592;BME280;40488;48.558;18.150;2023-01-28T03:44:57;99718.56;;;1.06;76.17
54592;BME280;40488;48.558;18.150;2023-01-28T03:47:30;99717.84;;;1.08;76.12
54592;BME280;40488;48.558;18.150;2023-01-28T03:50:03;99720.47;;;1.11;76.13
54592;BME280;40488;48.558;18.150;2023-01-28T03:52:44;99717.84;;;1.08;76.05
54592;BME280;40488;48.558;18.150;2023-01-28T03:55:35;99720.34;;;1.08;76.14
54592;BME280;40488;48.558;18.150;2023-01-28T03:58:05;99718.78;;;1.10;75.88
54592;BME280;40488;48.558;18.150;2023-01-28T04:00:35;99722.94;;;1.10;75.82
54592;BME280;40488;48.558;18.150;2023-01-28T04:03:13;99723.81;;;1.10;75.96
54592;BME280;40488;48.558;18.150;2023-01-28T04:05:58;99718.56;;;1.06;76.11
54592;BME280;40488;48.558;18.150;2023-01-28T04:08:38;99727.22;;;1.12;76.23
54592;BME280;40488;48.558;18.150;2023-01-28T04:11:23;99725.50;;;1.11;75.64
54592;BME280;40488;48.558;18.150;2023-01-28T04:13:54;99725.50;;;1.11;75.97
54592;BME280;40488;48.558;18.150;2023-01-28T04:16:24;99728.81;;;1.10;75.84
54592;BME280;40488;48.558;18.150;2023-01-28T04:18:55;99727.88;;;1.08;76.09
54592;BME280;40488;48.558;18.150;2023-01-28T04:21:24;99727.97;;;1.10;75.11
54592;BME280;40488;48.558;18.150;2023-01-28T04:23:53;99725.50;;;1.11;75.12
54592;BME280;40488;48.558;18.150;2023-01-28T04:26:22;99722.06;;;1.09;75.78
54592;BME280;40488;48.558;18.150;2023-01-28T04:28:51;99724.59;;;1.09;75.71
54592;BME280;40488;48.558;18.150;2023-01-28T04:31:21;99731.34;;;1.10;75.21
54592;BME280;40488;48.558;18.150;2023-01-28T04:34:14;99723.81;;;1.10;75.49
54592;BME280;40488;48.558;18.150;2023-01-28T04:37:04;99735.53;;;1.11;75.07
54592;BME280;40488;48.558;18.150;2023-01-28T04:39:43;99734.69;;;1.11;75.59
54592;BME280;40488;48.558;18.150;2023-01-28T04:42:32;99742.31;;;1.12;75.79
54592;BME280;40488;48.558;18.150;2023-01-28T04:45:10;99733.19;;;1.16;75.03
54592;BME280;40488;48.558;18.150;2023-01-28T04:47:51;99729.78;;;1.14;75.68
54592;BME280;40488;48.558;18.150;2023-01-28T04:50:32;99739.03;;;1.15;74.84
54592;BME280;40488;48.558;18.150;2023-01-28T04:53:15;99740.69;;;1.14;75.20
54592;BME280;40488;48.558;18.150;2023-01-28T04:55:56;99740.63;;;1.13;74.35
54592;BME280;40488;48.558;18.150;2023-01-28T04:58:28;99747.31;;;1.12;74.90
54592;BME280;40488;48.558;18.150;2023-01-28T05:01:01;99747.41;;;1.15;74.72
54592;BME280;40488;48.558;18.150;2023-01-28T05:03:32;99742.38;;;1.15;74.71
54592;BME280;40488;48.558;18.150;2023-01-28T05:06:06;99740.69;;;1.14;75.02
54592;BME280;40488;48.558;18.150;2023-01-28T05:08:42;99741.47;;;1.13;74.14
54592;BME280;40488;48.558;18.150;2023-01-28T05:11:14;99744.13;;;1.16;74.83
54592;BME280;40488;48.558;18.150;2023-01-28T05:13:48;99737.09;;;1.08;74.15
54592;BME280;40488;48.558;18.150;2023-01-28T05:16:19;99748.22;;;1.14;74.49
54592;BME280;40488;48.558;18.150;2023-01-28T05:18:48;99747.41;;;1.15;74.13
54592;BME280;40488;48.558;18.150;2023-01-28T05:21:20;99750.75;;;1.14;74.09
54592;BME280;40488;48.558;18.150;2023-01-28T05:23:57;99752.22;;;1.09;73.88
54592;BME280;40488;48.558;18.150;2023-01-28T05:26:28;99748.06;;;1.10;74.58
54592;BME280;40488;48.558;18.150;2023-01-28T05:28:57;99754.75;;;1.09;74.69
54592;BME280;40488;48.558;18.150;2023-01-28T05:31:25;99753.88;;;1.09;74.32
54592;BME280;40488;48.558;18.150;2023-01-28T05:33:55;99752.09;;;1.06;74.72
54592;BME280;40488;48.558;18.150;2023-01-28T05:36:25;99758.03;;;1.08;74.13
54592;BME280;40488;48.558;18.150;2023-01-28T05:38:55;99757.22;;;1.08;75.24
54592;BME280;40488;48.558;18.150;2023-01-28T05:41:24;99767.06;;;1.03;74.57
54592;BME280;40488;48.558;18.150;2023-01-28T05:43:59;99766.09;;;1.00;75.14
54592;BME280;40488;48.558;18.150;2023-01-28T05:46:54;99773.59;;;0.98;75.02
54592;BME280;40488;48.558;18.150;2023-01-28T05:49:34;99776.09;;;0.98;75.12
54592;BME280;40488;48.558;18.150;2023-01-28T05:52:30;99773.69;;;1.01;74.98
54592;BME280;40488;48.558;18.150;2023-01-28T05:55:00;99779.44;;;0.99;75.71
54592;BME280;40488;48.558;18.150;2023-01-28T05:57:29;99783.50;;;0.95;75.04
54592;BME280;40488;48.558;18.150;2023-01-28T06:00:00;99785.13;;;0.93;75.76
54592;BME280;40488;48.558;18.150;2023-01-28T06:02:40;99786.69;;;0.91;76.12
54592;BME280;40488;48.558;18.150;2023-01-28T06:05:12;99786.69;;;0.91;76.10
54592;BME280;40488;48.558;18.150;2023-01-28T06:07:45;99786.59;;;0.88;75.28
54592;BME280;40488;48.558;18.150;2023-01-28T06:10:16;99798.47;;;0.92;76.35
54592;BME280;40488;48.558;18.150;2023-01-28T06:12:46;99807.63;;;0.92;75.99
54592;BME280;40488;48.558;18.150;2023-01-28T06:15:25;99798.09;;;0.83;76.16
54592;BME280;40488;48.558;18.150;2023-01-28T06:18:00;99811.44;;;0.82;76.54
54592;BME280;40488;48.558;18.150;2023-01-28T06:20:32;99812.25;;;0.81;76.67
54592;BME280;40488;48.558;18.150;2023-01-28T06:23:03;99811.34;;;0.79;77.30
54592;BME280;40488;48.558;18.150;2023-01-28T06:25:32;99818.06;;;0.80;77.14
54592;BME280;40488;48.558;18.150;2023-01-28T06:28:06;99819.63;;;0.77;77.90
54592;BME280;40488;48.558;18.150;2023-01-28T06:30:34;99826.28;;;0.76;78.69
54592;BME280;40488;48.558;18.150;2023-01-28T06:33:03;99835.34;;;0.73;78.61
54592;BME280;40488;48.558;18.150;2023-01-28T06:35:32;99833.63;;;0.72;78.94
54592;BME280;40488;48.558;18.150;2023-01-28T06:38:02;99831.19;;;0.73;79.43
54592;BME280;40488;48.558;18.150;2023-01-28T06:40:32;99838.75;;;0.75;79.43
54592;BME280;40488;48.558;18.150;2023-01-28T06:43:00;99841.09;;;0.70;79.62
54592;BME280;40488;48.558;18.150;2023-01-28T06:45:30;99841.03;;;0.68;80.14
54592;BME280;40488;48.558;18.150;2023-01-28T06:47:59;99854.31;;;0.66;80.09
54592;BME280;40488;48.558;18.150;2023-01-28T06:50:30;99847.56;;;0.65;80.42
54592;BME280;40488;48.558;18.150;2023-01-28T06:52:58;99850.00;;;0.62;80.59
54592;BME280;40488;48.558;18.150;2023-01-28T06:55:29;99851.69;;;0.63;80.50
54592;BME280;40488;48.558;18.150;2023-01-28T06:57:58;99855.94;;;0.64;81.16
54592;BME280;40488;48.558;18.150;2023-01-28T07:00:26;99862.63;;;0.65;80.87
54592;BME280;40488;48.558;18.150;2023-01-28T07:02:55;99863.59;;;0.67;81.01
54592;BME280;40488;48.558;18.150;2023-01-28T07:05:24;99864.38;;;0.66;81.07
54592;BME280;40488;48.558;18.150;2023-01-28T07:07:53;99861.91;;;0.67;81.38
54592;BME280;40488;48.558;18.150;2023-01-28T07:10:22;99865.84;;;0.61;81.02
54592;BME280;40488;48.558;18.150;2023-01-28T07:12:52;99869.25;;;0.63;81.22
54592;BME280;40488;48.558;18.150;2023-01-28T07:15:21;99868.63;;;0.67;81.22
54592;BME280;40488;48.558;18.150;2023-01-28T07:17:50;99871.97;;;0.67;81.32
54592;BME280;40488;48.558;18.150;2023-01-28T07:20:19;99875.47;;;0.71;81.12
54592;BME280;40488;48.558;18.150;2023-01-28T07:22:48;99874.66;;;0.72;81.28
54592;BME280;40488;48.558;18.150;2023-01-28T07:25:17;99877.25;;;0.74;81.26
54592;BME280;40488;48.558;18.150;2023-01-28T07:27:48;99888.16;;;0.74;81.41
54592;BME280;40488;48.558;18.150;2023-01-28T07:30:20;99887.47;;;0.78;80.61
54592;BME280;40488;48.558;18.150;2023-01-28T07:32:53;99885.94;;;0.82;80.56
54592;BME280;40488;48.558;18.150;2023-01-28T07:35:23;99890.84;;;0.79;80.90
54592;BME280;40488;48.558;18.150;2023-01-28T07:37:52;99890.19;;;0.83;80.95
54592;BME280;40488;48.558;18.150;2023-01-28T07:40:21;99898.56;;;0.83;80.69
54592;BME280;40488;48.558;18.150;2023-01-28T07:42:50;99890.91;;;0.80;80.64
54592;BME280;40488;48.558;18.150;2023-01-28T07:45:24;99901.41;;;0.91;79.78
54592;BME280;40488;48.558;18.150;2023-01-28T07:47:54;99899.81;;;0.93;79.46
54592;BME280;40488;48.558;18.150;2023-01-28T07:50:23;99902.38;;;0.94;80.07
54592;BME280;40488;48.558;18.150;2023-01-28T07:52:52;99899.06;;;0.95;79.42
54592;BME280;40488;48.558;18.150;2023-01-28T07:55:21;99889.75;;;0.93;79.93
54592;BME280;40488;48.558;18.150;2023-01-28T07:57:51;99902.38;;;0.94;79.49
54592;BME280;40488;48.558;18.150;2023-01-28T08:00:20;99895.84;;;0.98;78.74
54592;BME280;40488;48.558;18.150;2023-01-28T08:02:54;99896.78;;;1.01;78.98
54592;BME280;40488;48.558;18.150;2023-01-28T08:05:25;99904.47;;;1.04;78.71
54592;BME280;40488;48.558;18.150;2023-01-28T08:07:56;99911.22;;;1.05;79.17
54592;BME280;40488;48.558;18.150;2023-01-28T08:10:25;99913.06;;;1.09;79.30
54592;BME280;40488;48.558;18.150;2023-01-28T08:12:55;99909.63;;;1.07;79.10
54592;BME280;40488;48.558;18.150;2023-01-28T08:15:25;99910.50;;;1.08;78.60
54592;BME280;40488;48.558;18.150;2023-01-28T08:17:57;99913.19;;;1.12;78.48
54592;BME280;40488;48.558;18.150;2023-01-28T08:20:28;99908.38;;;1.18;79.16
54592;BME280;40488;48.558;18.150;2023-01-28T08:23:05;99914.59;;;1.26;78.54
54592;BME280;40488;48.558;18.150;2023-01-28T08:25:34;99917.22;;;1.29;78.44
54592;BME280;40488;48.558;18.150;2023-01-28T08:28:03;99919.78;;;1.31;78.54
54592;BME280;40488;48.558;18.150;2023-01-28T08:30:33;99915.72;;;1.34;78.29
54592;BME280;40488;48.558;18.150;2023-01-28T08:33:07;99922.47;;;1.35;77.54
54592;BME280;40488;48.558;18.150;2023-01-28T08:35:36;99930.81;;;1.34;77.28
54592;BME280;40488;48.558;18.150;2023-01-28T08:38:06;99933.56;;;1.41;76.65
54592;BME280;40488;48.558;18.150;2023-01-28T08:40:35;99934.50;;;1.43;77.01
54592;BME280;40488;48.558;18.150;2023-01-28T08:43:06;99935.50;;;1.46;76.88
54592;BME280;40488;48.558;18.150;2023-01-28T08:45:35;99934.63;;;1.46;76.48
54592;BME280;40488;48.558;18.150;2023-01-28T08:48:07;99933.94;;;1.50;76.68
54592;BME280;40488;48.558;18.150;2023-01-28T08:50:38;99930.69;;;1.52;76.66
54592;BME280;40488;48.558;18.150;2023-01-28T08:53:10;99941.78;;;1.57;76.04
54592;BME280;40488;48.558;18.150;2023-01-28T08:55:39;99935.22;;;1.61;76.29
54592;BME280;40488;48.558;18.150;2023-01-28T08:58:10;99941.50;;;1.72;76.69
54592;BME280;40488;48.558;18.150;2023-01-28T09:00:40;99942.72;;;1.81;75.86
54592;BME280;40488;48.558;18.150;2023-01-28T09:03:10;99940.25;;;1.83;76.29
54592;BME280;40488;48.558;18.150;2023-01-28T09:05:39;99946.31;;;1.88;75.96
54592;BME280;40488;48.558;18.150;2023-01-28T09:08:09;99940.22;;;1.81;76.24
54592;BME280;40488;48.558;18.150;2023-01-28T09:10:39;99948.53;;;1.80;75.47
54592;BME280;40488;48.558;18.150;2023-01-28T09:13:08;99948.44;;;1.77;75.84
54592;BME280;40488;48.558;18.150;2023-01-28T09:15:38;99956.38;;;1.88;76.09
54592;BME280;40488;48.558;18.150;2023-01-28T09:18:07;99958.31;;;1.95;75.25
54592;BME280;40488;48.558;18.150;2023-01-28T09:20:37;99945.97;;;1.79;75.42
54592;BME280;40488;48.558;18.150;2023-01-28T09:23:07;99962.63;;;1.97;75.03
54592;BME280;40488;48.558;18.150;2023-01-28T09:25:36;99967.25;;;2.09;75.66
54592;BME280;40488;48.558;18.150;2023-01-28T09:28:05;99967.16;;;2.06;75.73
54592;BME280;40488;48.558;18.150;2023-01-28T09:30:34;99970.25;;;1.99;75.16
54592;BME280;40488;48.558;18.150;2023-01-28T09:33:05;99968.81;;;2.06;75.74
54592;BME280;40488;48.558;18.150;2023-01-28T09:35:34;99974.00;;;2.10;74.76
54592;BME280;40488;48.558;18.150;2023-01-28T09:38:04;99965.44;;;2.05;75.80
54592;BME280;40488;48.558;18.150;2023-01-28T09:40:35;99968.00;;;2.07;75.83
54592;BME280;40488;48.558;18.150;2023-01-28T09:43:25;99962.50;;;2.17;75.88
54592;BME280;40488;48.558;18.150;2023-01-28T09:46:02;99966.00;;;2.20;75.70
54592;BME280;40488;48.558;18.150;2023-01-28T09:48:37;99959.13;;;2.16;76.12
54592;BME280;40488;48.558;18.150;2023-01-28T09:51:12;99958.91;;;2.10;75.78
54592;BME280;40488;48.558;18.150;2023-01-28T09:53:49;99969.09;;;2.13;75.88
54592;BME280;40488;48.558;18.150;2023-01-28T09:56:24;99959.97;;;2.17;75.25
54592;BME280;40488;48.558;18.150;2023-01-28T09:58:55;99967.69;;;2.21;75.47
54592;BME280;40488;48.558;18.150;2023-01-28T10:01:36;99960.31;;;2.26;76.08
54592;BME280;40488;48.558;18.150;2023-01-28T10:04:18;99956.38;;;2.32;75.66
54592;BME280;40488;48.558;18.150;2023-01-28T10:06:57;99962.78;;;2.46;76.05
54592;BME280;40488;48.558;18.150;2023-01-28T10:09:36;99958.63;;;2.48;75.32
54592;BME280;40488;48.558;18.150;2023-01-28T10:12:25;99952.81;;;2.49;75.60
54592;BME280;40488;48.558;18.150;2023-01-28T10:15:18;99945.34;;;2.52;75.13
54592;BME280;40488;48.558;18.150;2023-01-28T10:17:51;99961.59;;;2.60;74.66
54592;BME280;40488;48.558;18.150;2023-01-28T10:20:44;99953.41;;;2.42;74.88
54592;BME280;40488;48.558;18.150;2023-01-28T10:23:23;99945.28;;;2.27;75.25
54592;BME280;40488;48.558;18.150;2023-01-28T10:25:58;99956.59;;;2.38;74.31
54592;BME280;40488;48.558;18.150;2023-01-28T10:28:29;99955.31;;;2.49;74.72
54592;BME280;40488;48.558;18.150;2023-01-28T10:30:59;99949.75;;;2.58;74.50
54592;BME280;40488;48.558;18.150;2023-01-28T10:33:32;99945.03;;;2.43;74.42
54592;BME280;40488;48.558;18.150;2023-01-28T10:36:04;99949.84;;;2.37;74.76
54592;BME280;40488;48.558;18.150;2023-01-28T10:38:35;99953.94;;;2.35;74.29
54592;BME280;40488;48.558;18.150;2023-01-28T10:41:08;99953.59;;;2.48;74.83
54592;BME280;40488;48.558;18.150;2023-01-28T10:43:39;99958.22;;;2.60;74.38
54592;BME280;40488;48.558;18.150;2023-01-28T10:46:14;99957.09;;;2.52;74.27
54592;BME280;40488;48.558;18.150;2023-01-28T10:48:47;99957.63;;;2.43;74.28
54592;BME280;40488;48.558;18.150;2023-01-28T10:51:33;99928.56;;;2.29;74.75
54592;BME280;40488;48.558;18.150;2023-01-28T10:54:03;99952.84;;;2.51;75.17
54592;BME280;40488;48.558;18.150;2023-01-28T10:56:46;99958.22;;;2.60;74.52
54592;BME280;40488;48.558;18.150;2023-01-28T10:59:24;99957.56;;;2.65;74.50
54592;BME280;40488;48.558;18.150;2023-01-28T11:01:55;99959.53;;;2.50;74.35
54592;BME280;40488;48.558;18.150;2023-01-28T11:04:26;99957.16;;;2.53;74.49
54592;BME280;40488;48.558;18.150;2023-01-28T11:07:01;99954.47;;;2.49;75.16
54592;BME280;40488;48.558;18.150;2023-01-28T11:09:31;99953.06;;;2.57;74.94
54592;BME280;40488;48.558;18.150;2023-01-28T11:12:12;99951.78;;;2.68;75.46
54592;BME280;40488;48.558;18.150;2023-01-28T11:14:49;99946.41;;;2.83;75.13
54592;BME280;40488;48.558;18.150;2023-01-28T11:17:20;99944.91;;;2.88;74.57
54592;BME280;40488;48.558;18.150;2023-01-28T11:19:52;99943.06;;;2.84;74.50
54592;BME280;40488;48.558;18.150;2023-01-28T11:22:30;99951.47;;;2.83;74.14
54592;BME280;40488;48.558;18.150;2023-01-28T11:25:03;99943.00;;;2.81;74.47
54592;BME280;40488;48.558;18.150;2023-01-28T11:27:36;99938.25;;;2.90;74.62
54592;BME280;40488;48.558;18.150;2023-01-28T11:30:18;99938.84;;;3.08;74.87
54592;BME280;40488;48.558;18.150;2023-01-28T11:32:55;99941.88;;;3.23;74.58
54592;BME280;40488;48.558;18.150;2023-01-28T11:35:25;99943.59;;;3.24;73.99
54592;BME280;40488;48.558;18.150;2023-01-28T11:37:56;99940.88;;;3.18;73.10
54592;BME280;40488;48.558;18.150;2023-01-28T11:40:26;99940.13;;;3.20;73.23
54592;BME280;40488;48.558;18.150;2023-01-28T11:42:56;99934.72;;;3.35;73.45
54592;BME280;40488;48.558;18.150;2023-01-28T11:45:34;99930.84;;;3.46;73.13
54592;BME280;40488;48.558;18.150;2023-01-28T11:48:15;99938.34;;;3.43;73.20
54592;BME280;40488;48.558;18.150;2023-01-28T11:50:46;99941.94;;;3.51;73.35
54592;BME280;40488;48.558;18.150;2023-01-28T11:53:32;99930.59;;;3.65;73.18
54592;BME280;40488;48.558;18.150;2023-01-28T11:56:19;99932.22;;;3.90;72.86
54592;BME280;40488;48.558;18.150;2023-01-28T11:59:00;99928.97;;;3.94;72.18
54592;BME280;40488;48.558;18.150;2023-01-28T12:01:40;99929.50;;;4.12;71.68
54592;BME280;40488;48.558;18.150;2023-01-28T12:04:29;99931.97;;;4.11;71.06
54592;BME280;40488;48.558;18.150;2023-01-28T12:07:21;99927.91;;;4.16;70.71
54592;BME280;40488;48.558;18.150;2023-01-28T12:09:55;99934.78;;;4.20;70.05
54592;BME280;40488;48.558;18.150;2023-01-28T12:12:42;99933.03;;;4.17;70.39
54592;BME280;40488;48.558;18.150;2023-01-28T12:18:28;99935.56;;;4.17;70.35
54592;BME280;40488;48.558;18.150;2023-01-28T12:21:03;99933.25;;;3.96;69.72
54592;BME280;40488;48.558;18.150;2023-01-28T12:23:49;99927.25;;;3.93;70.29
54592;BME280;40488;48.558;18.150;2023-01-28T12:26:27;99929.72;;;3.91;69.86
54592;BME280;40488;48.558;18.150;2023-01-28T12:29:17;99937.00;;;3.81;69.80
54592;BME280;40488;48.558;18.150;2023-01-28T12:32:03;99938.31;;;3.70;69.57
54592;BME280;40488;48.558;18.150;2023-01-28T12:34:59;99937.28;;;3.63;69.27
54592;BME280;40488;48.558;18.150;2023-01-28T12:37:42;99937.09;;;3.57;70.26
54592;BME280;40488;48.558;18.150;2023-01-28T12:40:30;99942.06;;;3.54;70.25
54592;BME280;40488;48.558;18.150;2023-01-28T12:43:09;99936.63;;;3.42;70.18
54592;BME280;40488;48.558;18.150;2023-01-28T12:45:43;99938.41;;;3.46;70.19
54592;BME280;40488;48.558;18.150;2023-01-28T12:48:17;99911.19;;;3.36;71.13
54592;BME280;40488;48.558;18.150;2023-01-28T12:50:53;99940.16;;;3.47;71.13
54592;BME280;40488;48.558;18.150;2023-01-28T12:53:30;99909.28;;;3.29;71.35
54592;BME280;40488;48.558;18.150;2023-01-28T12:56:07;99926.41;;;3.39;70.99
54592;BME280;40488;48.558;18.150;2023-01-28T12:58:49;99933.88;;;3.36;71.05
54592;BME280;40488;48.558;18.150;2023-01-28T13:01:25;99945.34;;;3.26;71.10
54592;BME280;40488;48.558;18.150;2023-01-28T13:04:00;99943.69;;;3.27;71.43
54592;BME280;40488;48.558;18.150;2023-01-28T13:06:37;99939.72;;;3.33;71.48
54592;BME280;40488;48.558;18.150;2023-01-28T13:09:15;99943.47;;;3.46;71.45
54592;BME280;40488;48.558;18.150;2023-01-28T13:11:47;99943.38;;;3.43;71.30
54592;BME280;40488;48.558;18.150;2023-01-28T13:14:23;99949.75;;;3.32;70.38
54592;BME280;40488;48.558;18.150;2023-01-28T13:16:53;99936.00;;;3.24;70.62
54592;BME280;40488;48.558;18.150;2023-01-28T13:19:24;99944.59;;;3.29;70.76
54592;BME280;40488;48.558;18.150;2023-01-28T13:21:54;99948.34;;;3.40;70.95
54592;BME280;40488;48.558;18.150;2023-01-28T13:24:30;99945.09;;;3.44;70.86
54592;BME280;40488;48.558;18.150;2023-01-28T13:27:11;99941.03;;;3.49;70.75
54592;BME280;40488;48.558;18.150;2023-01-28T13:29:47;99945.31;;;3.50;70.69
54592;BME280;40488;48.558;18.150;2023-01-28T13:32:28;99946.00;;;3.46;70.23
54592;BME280;40488;48.558;18.150;2023-01-28T13:35:00;99961.84;;;3.42;70.43
54592;BME280;40488;48.558;18.150;2023-01-28T13:37:33;99952.47;;;3.38;70.20
54592;BME280;40488;48.558;18.150;2023-01-28T13:40:07;99960.03;;;3.38;70.32
54592;BME280;40488;48.558;18.150;2023-01-28T13:42:58;99948.13;;;3.34;70.69
54592;BME280;40488;48.558;18.150;2023-01-28T13:45:28;99953.47;;;3.43;70.60